Time;durP1;ratioP1;P1;durP2;ratioP2;P2;SDS_P1;SDS_P2;PMS_P1;PMS_P2;Temp;Humidity;BMP_temperature;BMP_pressure;BME280_temperature;BME280_humidity;BME280_pressure;Samples;Min_cycle;Max_cycle;Signal;HPM_P1;HPM_P2
2022/02/03 00:01:22;;;;;;;11.23;2.40;;;23.20;62.30;;;;;;4131574;28;20041;-70
2022/02/03 00:03:59;;;;;;;10.27;2.85;;;23.20;62.20;;;;;;4116438;28;20236;-67
2022/02/03 00:06:33;;;;;;;5.82;2.50;;;23.20;62.10;;;;;;4127826;28;20071;-69
2022/02/03 00:17:05;;;;;;;8.75;2.63;;;23.40;61.70;;;;;;4127022;28;20128;-66
2022/02/03 00:22:51;;;;;;;7.13;2.55;;;23.50;61.80;;;;;;4126510;28;20112;-70
2022/02/03 00:25:21;;;;;;;8.80;2.90;;;23.50;62.30;;;;;;4121446;28;20068;-64
2022/02/03 00:28:15;;;;;;;6.65;2.67;;;23.60;61.30;;;;;;4124183;28;20048;-68
2022/02/03 00:33:21;;;;;;;9.43;2.47;;;23.60;61.40;;;;;;4125762;28;20562;-68
2022/02/03 00:38:22;;;;;;;9.60;2.50;;;23.70;60.50;;;;;;4125689;28;20052;-62
2022/02/03 00:48:58;;;;;;;10.10;2.78;;;23.70;61.10;;;;;;4116121;28;20053;-62
2022/02/03 00:51:21;;;;;;;;;;;23.70;60.70;;;;;;4111147;28;20044;-65
2022/02/03 00:53:44;;;;;;;6.40;2.35;;;23.70;60.30;;;;;;4119596;28;19916;-64
2022/02/03 00:56:15;;;;;;;14.75;2.65;;;23.70;60.00;;;;;;4126094;28;20319;-63
2022/02/03 00:58:53;;;;;;;8.95;2.65;;;23.70;59.70;;;;;;4121261;28;20042;-64
2022/02/03 01:01:25;;;;;;;10.30;2.60;;;23.70;59.50;;;;;;4119183;28;20048;-61
2022/02/03 01:03:51;;;;;;;6.88;2.15;;;23.70;60.10;;;;;;4111159;28;20128;-64
2022/02/03 01:06:15;;;;;;;8.93;2.25;;;23.80;60.40;;;;;;4103344;28;20045;-63
2022/02/03 01:08:42;;;;;;;;;;;23.80;60.20;;;;;;4099889;28;20072;-66
2022/02/03 01:11:14;;;;;;;8.23;2.25;;;23.90;60.10;;;;;;4073007;28;19917;-63
2022/02/03 01:13:43;;;;;;;8.60;2.05;;;23.90;60.10;;;;;;4097013;28;20368;-65
2022/02/03 01:34:53;;;;;;;8.65;2.22;;;24.10;59.00;;;;;;4094004;28;20900;-74
2022/02/03 01:43:44;;;;;;;7.47;2.70;;;24.20;58.60;;;;;;4087835;28;21060;-75
2022/02/03 01:53:31;;;;;;;6.38;2.17;;;24.20;58.20;;;;;;4079912;28;20047;-73
2022/02/03 01:56:23;;;;;;;7.03;1.65;;;24.20;58.10;;;;;;4087624;28;20045;-73
2022/02/03 01:58:53;;;;;;;6.30;2.30;;;24.20;58.30;;;;;;4078298;28;20548;-76
2022/02/03 02:01:32;;;;;;;4.43;1.67;;;24.30;58.20;;;;;;4086220;28;20038;-75
2022/02/03 02:04:15;;;;;;;7.32;2.53;;;24.30;58.10;;;;;;4071144;28;20038;-75
2022/02/03 02:07:00;;;;;;;6.95;2.10;;;24.30;58.30;;;;;;4082006;28;20072;-75
2022/02/03 02:09:25;;;;;;;8.88;2.65;;;24.30;58.00;;;;;;4080070;28;20042;-73
2022/02/03 02:15:16;;;;;;;4.85;2.10;;;24.40;57.90;;;;;;4083108;28;20471;-72
2022/02/03 02:36:51;;;;;;;5.80;1.88;;;24.40;57.60;;;;;;4077261;28;20038;-73
2022/02/03 02:39:07;;;;;;;6.05;2.03;;;24.50;57.20;;;;;;4094024;28;20041;-72
2022/02/03 02:44:16;;;;;;;4.65;2.03;;;24.60;57.00;;;;;;4099197;28;20097;-70
2022/02/03 02:46:52;;;;;;;6.75;2.00;;;24.60;57.10;;;;;;4091540;28;20120;-74
2022/02/03 02:49:22;;;;;;;5.20;1.77;;;24.60;57.10;;;;;;4088481;28;20164;-73
2022/02/03 02:51:48;;;;;;;5.20;2.05;;;24.60;56.80;;;;;;4098206;28;20072;-75
2022/02/03 02:54:31;;;;;;;4.53;1.92;;;24.70;56.80;;;;;;4090747;28;20045;-74
2022/02/03 03:00:49;;;;;;;4.63;1.92;;;24.70;56.60;;;;;;4092240;28;20931;-66
2022/02/03 03:30:09;;;;;;;5.03;2.22;;;24.90;55.70;;;;;;4088779;28;20096;-64
2022/02/03 03:35:52;;;;;;;3.95;1.85;;;24.90;55.50;;;;;;4078132;28;20159;-65
2022/02/03 03:38:19;;;;;;;4.25;2.05;;;24.90;55.50;;;;;;4097063;28;21664;-65
2022/02/03 03:40:50;;;;;;;4.90;1.95;;;24.90;55.00;;;;;;4095895;28;20340;-65
2022/02/03 03:43:19;;;;;;;7.22;2.10;;;24.90;55.60;;;;;;4085558;28;21264;-65
2022/02/03 03:45:51;;;;;;;4.93;2.10;;;25.00;55.70;;;;;;4087241;28;20103;-64
2022/02/03 03:48:18;;;;;;;4.45;1.67;;;25.00;55.90;;;;;;4099087;28;20738;-64
2022/02/03 03:50:46;;;;;;;5.03;2.00;;;25.00;55.60;;;;;;4088529;28;20165;-66
2022/02/03 03:53:25;;;;;;;4.90;2.10;;;25.10;55.70;;;;;;4092693;28;20042;-68
2022/02/03 03:56:07;;;;;;;5.15;2.00;;;25.10;55.70;;;;;;4097145;28;20034;-66
2022/02/03 05:02:02;;;;;;;7.32;1.80;;;25.90;58.00;;;;;;4105863;28;20052;-69
2022/02/03 05:04:44;;;;;;;5.60;1.83;;;25.90;57.90;;;;;;4091603;28;20122;-69
2022/02/03 05:42:21;;;;;;;3.22;1.02;;;26.30;58.20;;;;;;4106332;28;20095;-65
2022/02/03 05:45:40;;;;;;;4.53;1.58;;;26.40;58.30;;;;;;4106125;28;20048;-68
2022/02/03 05:51:07;;;;;;;11.05;2.42;;;26.40;57.00;;;;;;4110007;28;20131;-69
2022/02/03 06:15:05;;;;;;;2.17;0.68;;;27.00;56.80;;;;;;4100132;28;20127;-69
2022/02/03 06:17:38;;;;;;;1.92;0.50;;;27.00;56.80;;;;;;4099745;28;20048;-71
2022/02/03 06:22:51;;;;;;;0.63;0.38;;;27.10;56.80;;;;;;4105182;28;20052;-71
2022/02/03 06:27:44;;;;;;;2.17;0.40;;;27.10;55.90;;;;;;4103609;28;20049;-73
2022/02/03 06:30:08;;;;;;;0.60;0.30;;;27.10;56.10;;;;;;4096872;28;21938;-70
2022/02/03 06:32:31;;;;;;;0.70;0.38;;;27.10;56.20;;;;;;4091391;28;20038;-68
2022/02/03 06:34:53;;;;;;;0.77;0.50;;;27.10;56.30;;;;;;4084828;28;20225;-70
2022/02/03 06:37:16;;;;;;;1.05;0.70;;;27.10;56.30;;;;;;4100319;28;20045;-69
2022/02/03 06:39:38;;;;;;;2.88;0.60;;;27.10;56.30;;;;;;4095809;28;20049;-70
2022/02/03 06:42:04;;;;;;;0.82;0.30;;;27.10;56.30;;;;;;4095058;28;20148;-68
2022/02/03 06:44:42;;;;;;;0.55;0.35;;;27.20;56.40;;;;;;4103954;28;20041;-69
2022/02/03 06:47:19;;;;;;;1.88;0.63;;;27.20;56.00;;;;;;4105054;28;20047;-70
2022/02/03 06:57:17;;;;;;;2.47;0.52;;;27.10;54.40;;;;;;4093575;28;20064;-69
2022/02/03 06:59:49;;;;;;;0.80;0.50;;;27.10;54.30;;;;;;4099980;28;20040;-69
2022/02/03 07:02:12;;;;;;;1.58;0.70;;;27.10;54.10;;;;;;4089701;28;20075;-70
2022/02/03 07:04:41;;;;;;;2.58;0.65;;;27.00;54.10;;;;;;4092209;28;20132;-70
2022/02/03 07:07:04;;;;;;;1.30;0.50;;;27.00;54.50;;;;;;4089220;28;20559;-69
2022/02/03 07:09:29;;;;;;;4.28;0.98;;;27.00;54.70;;;;;;4094554;28;20123;-71
2022/02/03 07:11:51;;;;;;;2.22;0.63;;;27.00;55.00;;;;;;4092776;28;20433;-75
2022/02/03 07:14:14;;;;;;;4.38;1.10;;;27.00;55.20;;;;;;4095017;28;20045;-69
2022/02/03 07:16:46;;;;;;;3.35;1.02;;;27.00;55.30;;;;;;4084235;28;20112;-72
2022/02/03 07:19:08;;;;;;;4.93;1.27;;;27.00;54.70;;;;;;4079533;28;20037;-70
2022/02/03 07:21:31;;;;;;;5.43;1.63;;;26.90;54.00;;;;;;4081483;28;20045;-70
2022/02/03 07:23:53;;;;;;;6.10;1.33;;;26.90;54.00;;;;;;4069943;28;20039;-71
2022/02/03 07:26:16;;;;;;;6.75;1.75;;;26.80;53.60;;;;;;4089314;28;20054;-73
2022/02/03 07:28:38;;;;;;;5.45;1.42;;;26.80;54.10;;;;;;4083395;28;20060;-73
2022/02/03 07:31:01;;;;;;;4.32;1.30;;;26.80;53.20;;;;;;4089806;28;21396;-70
2022/02/03 07:33:24;;;;;;;10.70;1.60;;;26.70;53.60;;;;;;4086639;28;20095;-70
2022/02/03 07:35:46;;;;;;;5.85;1.48;;;26.70;53.80;;;;;;4087955;28;20164;-72
2022/02/03 07:38:09;;;;;;;4.20;1.58;;;26.70;53.70;;;;;;4099064;28;20122;-69
2022/02/03 07:40:32;;;;;;;4.85;1.50;;;26.60;53.50;;;;;;4086388;28;20074;-69
2022/02/03 07:42:55;;;;;;;5.95;1.75;;;26.60;53.50;;;;;;4084027;28;20073;-69
2022/02/03 07:45:20;;;;;;;3.92;1.20;;;26.60;53.60;;;;;;4086186;28;20695;-69
2022/02/03 07:47:47;;;;;;;7.13;1.75;;;26.50;53.60;;;;;;4085108;28;20053;-71
2022/02/03 07:50:10;;;;;;;7.63;1.90;;;26.50;53.70;;;;;;4094580;28;20033;-68
2022/02/03 07:52:32;;;;;;;5.32;1.58;;;26.50;53.60;;;;;;4086092;28;20052;-69
2022/02/03 07:54:55;;;;;;;7.65;1.90;;;26.50;53.60;;;;;;4088369;28;20044;-71
2022/02/03 07:57:22;;;;;;;5.45;1.67;;;26.40;53.60;;;;;;4089770;28;20455;-69
2022/02/03 07:59:44;;;;;;;3.97;1.23;;;26.40;53.60;;;;;;4087979;28;20041;-71
2022/02/03 08:02:08;;;;;;;3.88;1.63;;;26.40;53.70;;;;;;4091891;28;20124;-71
2022/02/03 08:04:33;;;;;;;3.28;1.35;;;26.30;53.60;;;;;;4074253;28;20042;-69
2022/02/03 08:06:56;;;;;;;6.18;1.75;;;26.30;53.70;;;;;;4092430;28;20537;-69
2022/02/03 08:09:36;;;;;;;4.30;1.40;;;26.30;53.80;;;;;;4083939;28;21040;-71
2022/02/03 08:12:02;;;;;;;5.28;1.50;;;26.20;54.30;;;;;;4088651;28;20506;-69
2022/02/03 08:14:48;;;;;;;6.05;1.40;;;26.20;53.80;;;;;;4077804;28;20034;-69
2022/02/03 08:17:16;;;;;;;6.15;1.60;;;26.20;53.70;;;;;;4088625;28;21668;-69
2022/02/03 08:22:07;;;;;;;6.35;1.67;;;26.10;53.80;;;;;;4089096;28;20038;-70
2022/02/03 08:24:42;;;;;;;6.20;1.63;;;26.10;53.90;;;;;;4091022;28;20041;-69
2022/02/03 08:27:34;;;;;;;5.30;1.60;;;26.00;53.90;;;;;;4101079;28;20099;-70
2022/02/03 08:32:17;;;;;;;5.65;1.60;;;26.00;53.90;;;;;;4085545;28;20052;-69
2022/02/03 08:35:34;;;;;;;2.83;1.17;;;26.00;53.90;;;;;;4091313;28;20069;-71
2022/02/03 08:37:57;;;;;;;5.60;1.30;;;26.00;54.20;;;;;;4099788;28;20817;-69
2022/02/03 08:40:31;;;;;;;6.00;1.90;;;25.90;53.90;;;;;;4101431;28;20553;-72
2022/02/03 08:42:53;;;;;;;5.45;1.77;;;25.90;54.10;;;;;;4098067;28;20040;-70
2022/02/03 08:45:17;;;;;;;5.13;1.80;;;25.90;54.30;;;;;;4098329;28;20104;-69
2022/02/03 08:47:52;;;;;;;3.85;1.50;;;25.90;54.20;;;;;;4105895;28;20057;-72
2022/02/03 08:50:18;;;;;;;4.55;1.70;;;25.90;54.40;;;;;;4094282;28;20034;-73
2022/02/03 08:52:56;;;;;;;5.93;1.58;;;25.80;54.20;;;;;;4092770;28;20080;-71
2022/02/03 08:58:01;;;;;;;4.07;1.60;;;25.80;54.30;;;;;;4092187;28;20076;-72
2022/02/03 09:34:25;;;;;;;7.15;1.60;;;25.60;54.90;;;;;;4092586;28;20166;-71
2022/02/03 09:57:11;;;;;;;3.67;0.90;;;25.70;56.10;;;;;;4096563;28;20046;-72
2022/02/03 09:59:46;;;;;;;7.20;1.40;;;25.70;56.40;;;;;;4100411;28;20466;-74
2022/02/03 10:02:22;;;;;;;3.72;1.33;;;25.70;56.40;;;;;;4105489;28;20604;-75
2022/02/03 10:04:55;;;;;;;1.95;0.90;;;25.70;56.40;;;;;;4104046;28;21249;-72
2022/02/03 10:07:21;;;;;;;2.90;0.70;;;25.70;56.40;;;;;;4084631;28;20729;-74
2022/02/03 10:09:44;;;;;;;4.22;0.88;;;25.70;56.40;;;;;;4100152;28;20045;-71
2022/02/03 10:12:08;;;;;;;2.53;0.95;;;25.70;56.60;;;;;;4095360;28;20515;-72
2022/02/03 10:14:32;;;;;;;;;;;25.70;56.40;;;;;;4091828;28;20108;-72
2022/02/03 10:16:57;;;;;;;2.63;0.80;;;25.70;56.60;;;;;;4094253;28;20681;-71
2022/02/03 10:19:30;;;;;;;1.25;0.80;;;25.70;56.60;;;;;;4092806;28;21267;-67
2022/02/03 10:21:52;;;;;;;4.93;1.05;;;25.70;56.60;;;;;;4094262;28;20037;-69
2022/02/03 10:24:17;;;;;;;3.72;0.98;;;25.70;56.70;;;;;;4095108;28;20346;-71
2022/02/03 10:26:50;;;;;;;11.13;1.30;;;25.70;56.60;;;;;;4091290;28;20065;-69
2022/02/03 10:29:17;;;;;;;2.90;0.85;;;25.70;56.70;;;;;;4101165;28;20513;-70
2022/02/03 10:31:43;;;;;;;3.40;0.98;;;25.70;56.80;;;;;;4091070;28;20033;-68
2022/02/03 10:34:11;;;;;;;2.25;0.98;;;25.70;56.70;;;;;;4097032;28;20037;-67
2022/02/03 10:36:58;;;;;;;6.88;1.17;;;25.70;57.30;;;;;;4086270;28;20046;-70
2022/02/03 10:42:25;;;;;;;3.10;1.17;;;25.70;57.10;;;;;;4087817;28;20877;-74
2022/02/03 10:45:09;;;;;;;11.05;1.15;;;25.70;57.10;;;;;;4088358;28;20164;-73
2022/02/03 10:52:54;;;;;;;3.60;1.00;;;25.70;57.20;;;;;;4097897;28;20897;-69
2022/02/03 11:01:11;;;;;;;4.07;1.65;;;25.70;57.60;;;;;;4095796;28;20802;-71
2022/02/03 11:06:42;;;;;;;4.63;1.55;;;25.70;57.40;;;;;;4086943;28;20095;-70
2022/02/03 11:09:22;;;;;;;3.38;1.33;;;25.70;57.50;;;;;;4086155;28;20144;-70
2022/02/03 11:11:54;;;;;;;4.68;1.48;;;25.70;57.50;;;;;;4087920;28;21381;-69
2022/02/03 11:14:17;;;;;;;4.03;1.33;;;25.70;57.50;;;;;;4094328;28;20042;-69
2022/02/03 11:16:41;;;;;;;16.08;2.28;;;25.70;57.70;;;;;;4072944;28;20061;-69
2022/02/03 11:19:06;;;;;;;5.97;1.45;;;25.70;57.80;;;;;;4086813;28;20045;-71
2022/02/03 11:21:29;;;;;;;6.65;1.52;;;25.70;57.20;;;;;;4087066;28;20048;-71
2022/02/03 11:24:00;;;;;;;4.63;1.42;;;25.70;57.70;;;;;;4087176;28;20036;-68
2022/02/03 11:26:32;;;;;;;4.78;1.63;;;25.70;57.60;;;;;;4091749;28;21927;-69
2022/02/03 11:34:14;;;;;;;4.45;1.35;;;25.70;57.60;;;;;;4095819;28;20183;-69
2022/02/03 11:37:14;;;;;;;5.18;1.05;;;25.70;57.70;;;;;;4092881;28;20050;-70
2022/02/03 11:43:16;;;;;;;5.68;1.95;;;25.70;57.50;;;;;;4087945;28;20053;-71
2022/02/03 12:01:57;;;;;;;3.30;1.45;;;25.70;57.80;;;;;;4089153;28;20187;-69
2022/02/03 12:05:12;;;;;;;6.10;1.75;;;25.70;57.90;;;;;;4094777;28;20123;-75
2022/02/03 12:11:19;;;;;;;4.93;1.77;;;25.60;58.10;;;;;;4090890;28;20052;-71
2022/02/03 12:14:23;;;;;;;3.55;1.40;;;25.60;58.10;;;;;;4074126;28;20054;-71
2022/02/03 12:22:06;;;;;;;4.70;1.70;;;25.60;57.80;;;;;;4090310;28;20053;-72
2022/02/03 12:24:52;;;;;;;3.60;1.48;;;25.60;57.70;;;;;;4081227;28;20646;-72
2022/02/03 12:29:48;;;;;;;3.35;1.45;;;25.50;57.40;;;;;;4096200;28;20050;-71
2022/02/03 12:32:24;;;;;;;3.55;1.30;;;25.40;57.10;;;;;;4091669;28;20033;-72
2022/02/03 12:38:02;;;;;;;9.60;1.75;;;25.40;57.20;;;;;;4095945;28;20834;-70
2022/02/03 12:40:29;;;;;;;7.15;2.13;;;25.40;57.40;;;;;;4092730;28;20056;-71
2022/02/03 12:43:48;;;;;;;6.18;1.80;;;25.30;57.70;;;;;;4087502;28;20125;-71
2022/02/03 12:45:43;;;;;;;7.10;2.15;;;25.40;57.90;;;;;;4089867;28;20056;-70
2022/02/03 12:48:06;;;;;;;7.63;1.73;;;25.30;57.90;;;;;;4089581;28;21721;-69
2022/02/03 12:50:36;;;;;;;3.47;1.63;;;25.40;58.20;;;;;;4098820;28;20068;-70
2022/02/03 12:53:00;;;;;;;3.97;1.42;;;25.40;58.30;;;;;;4087458;28;20101;-69
2022/02/03 12:55:24;;;;;;;5.75;1.73;;;25.30;58.20;;;;;;4099304;28;20052;-72
2022/02/03 12:57:49;;;;;;;2.90;1.30;;;25.30;58.30;;;;;;4087612;28;20069;-70
2022/02/03 13:00:25;;;;;;;5.70;1.40;;;25.30;58.30;;;;;;4086258;28;21210;-71
2022/02/03 13:02:53;;;;;;;5.43;1.10;;;25.30;58.30;;;;;;4103883;28;20051;-71
2022/02/03 13:05:15;;;;;;;2.92;1.10;;;25.30;58.30;;;;;;4105892;28;20037;-71
2022/02/03 13:07:38;;;;;;;13.43;1.52;;;25.30;58.30;;;;;;4105620;28;20037;-71
2022/02/03 13:10:10;;;;;;;12.10;1.65;;;25.30;58.30;;;;;;4112659;28;20049;-72
2022/02/03 13:12:37;;;;;;;3.45;1.17;;;25.30;58.40;;;;;;4106203;28;21453;-72
2022/02/03 13:15:02;;;;;;;3.67;1.50;;;25.30;58.20;;;;;;4109617;28;20172;-71
2022/02/03 13:17:33;;;;;;;3.72;1.05;;;25.20;58.00;;;;;;4103715;28;20217;-70
2022/02/03 22:51:58;;;;;;;2.10;0.73;;;23.10;60.30;;;;;;4462045;23;20101;-69
2022/02/03 22:54:20;;;;;;;;;;;23.10;60.40;;;;;;4115831;28;20051;-69
2022/02/03 22:56:42;;;;;;;4.10;0.88;;;23.10;60.50;;;;;;4111165;28;19918;-68
2022/02/03 23:01:47;;;;;;;3.03;0.70;;;23.10;60.20;;;;;;4113677;28;20071;-69
2022/02/03 23:04:11;;;;;;;2.08;0.70;;;23.20;60.20;;;;;;4113292;28;20041;-70
2022/02/03 23:06:55;;;;;;;5.88;0.57;;;23.20;60.30;;;;;;4113939;28;20124;-70
2022/02/03 23:09:33;;;;;;;2.72;0.40;;;23.20;60.20;;;;;;4114567;28;20234;-68
2022/02/03 23:14:50;;;;;;;1.65;0.40;;;23.20;60.30;;;;;;4119013;28;20243;-69
2022/02/03 23:20:05;;;;;;;3.83;0.90;;;23.30;60.30;;;;;;4120354;28;20504;-70
2022/02/03 23:22:29;;;;;;;3.75;0.88;;;23.30;60.20;;;;;;4107850;28;20042;-73
2022/02/03 23:24:53;;;;;;;29.23;2.95;;;23.30;60.30;;;;;;4117158;28;21889;-67
2022/02/03 23:29:40;;;;;;;42.00;3.08;;;23.40;60.70;;;;;;4118722;28;20053;-71
2022/02/03 23:32:08;;;;;;;;;;;23.50;60.80;;;;;;4104109;28;20061;-74
2022/02/03 23:34:31;;;;;;;12.68;1.83;;;23.50;60.40;;;;;;4118269;28;19953;-71
2022/02/03 23:36:54;;;;;;;13.07;1.90;;;23.50;60.00;;;;;;4115909;28;20075;-72
2022/02/03 23:44:37;;;;;;;4.10;1.13;;;23.60;59.90;;;;;;4115751;28;20088;-74
2022/02/03 23:47:24;;;;;;;8.10;1.20;;;23.70;59.90;;;;;;4119558;28;20052;-72
